sensor_id;sensor_type;location;lat;lon;timestamp;P1;durP1;ratioP1;P2;durP2;ratioP2
16354;SDS011;8287;51.644;8.494;2022-07-23T00:01:53;6.28;;;5.10;;
16354;SDS011;8287;51.644;8.494;2022-07-23T00:04:19;16.30;;;6.18;;
16354;SDS011;8287;51.644;8.494;2022-07-23T00:06:46;10.50;;;6.68;;
16354;SDS011;8287;51.644;8.494;2022-07-23T00:09:12;6.45;;;5.05;;
16354;SDS011;8287;51.644;8.494;2022-07-23T00:11:40;7.20;;;5.10;;
16354;SDS011;8287;51.644;8.494;2022-07-23T00:14:07;5.45;;;4.95;;
16354;SDS011;8287;51.644;8.494;2022-07-23T00:16:33;8.73;;;5.00;;
16354;SDS011;8287;51.644;8.494;2022-07-23T00:19:00;6.00;;;4.80;;
16354;SDS011;8287;51.644;8.494;2022-07-23T00:21:28;6.60;;;5.40;;
16354;SDS011;8287;51.644;8.494;2022-07-23T00:23:54;7.93;;;5.00;;
16354;SDS011;8287;51.644;8.494;2022-07-23T00:26:21;5.65;;;5.03;;
16354;SDS011;8287;51.644;8.494;2022-07-23T00:28:49;7.57;;;5.55;;
16354;SDS011;8287;51.644;8.494;2022-07-23T00:31:15;5.70;;;5.03;;
16354;SDS011;8287;51.644;8.494;2022-07-23T00:33:42;9.50;;;5.45;;
16354;SDS011;8287;51.644;8.494;2022-07-23T00:36:09;7.03;;;5.20;;
16354;SDS011;8287;51.644;8.494;2022-07-23T00:38:35;8.27;;;5.18;;
16354;SDS011;8287;51.644;8.494;2022-07-23T00:41:02;7.15;;;6.20;;
16354;SDS011;8287;51.644;8.494;2022-07-23T00:43:29;8.13;;;5.57;;
16354;SDS011;8287;51.644;8.494;2022-07-23T00:45:57;8.13;;;6.25;;
16354;SDS011;8287;51.644;8.494;2022-07-23T00:48:23;6.68;;;5.40;;
16354;SDS011;8287;51.644;8.494;2022-07-23T00:50:50;8.85;;;5.18;;
16354;SDS011;8287;51.644;8.494;2022-07-23T00:53:17;7.38;;;5.70;;
16354;SDS011;8287;51.644;8.494;2022-07-23T00:55:43;8.43;;;6.05;;
16354;SDS011;8287;51.644;8.494;2022-07-23T00:58:10;9.32;;;6.63;;
16354;SDS011;8287;51.644;8.494;2022-07-23T01:00:37;13.05;;;7.53;;
16354;SDS011;8287;51.644;8.494;2022-07-23T01:03:05;11.27;;;6.05;;
16354;SDS011;8287;51.644;8.494;2022-07-23T01:05:32;11.25;;;6.60;;
16354;SDS011;8287;51.644;8.494;2022-07-23T01:07:59;9.30;;;7.07;;
16354;SDS011;8287;51.644;8.494;2022-07-23T01:10:26;8.23;;;5.60;;
16354;SDS011;8287;51.644;8.494;2022-07-23T01:12:59;8.15;;;5.85;;
16354;SDS011;8287;51.644;8.494;2022-07-23T01:15:28;8.23;;;6.45;;
16354;SDS011;8287;51.644;8.494;2022-07-23T01:17:55;7.40;;;6.07;;
16354;SDS011;8287;51.644;8.494;2022-07-23T01:20:23;8.35;;;6.88;;
16354;SDS011;8287;51.644;8.494;2022-07-23T01:22:51;8.30;;;5.68;;
16354;SDS011;8287;51.644;8.494;2022-07-23T01:25:19;7.90;;;6.00;;
16354;SDS011;8287;51.644;8.494;2022-07-23T01:27:46;9.10;;;5.95;;
16354;SDS011;8287;51.644;8.494;2022-07-23T01:30:13;8.85;;;5.97;;
16354;SDS011;8287;51.644;8.494;2022-07-23T01:32:41;10.57;;;6.47;;
16354;SDS011;8287;51.644;8.494;2022-07-23T01:35:08;9.88;;;6.63;;
16354;SDS011;8287;51.644;8.494;2022-07-23T01:37:35;8.43;;;6.28;;
16354;SDS011;8287;51.644;8.494;2022-07-23T01:40:04;12.23;;;6.93;;
16354;SDS011;8287;51.644;8.494;2022-07-23T01:42:31;7.85;;;5.90;;
16354;SDS011;8287;51.644;8.494;2022-07-23T01:44:58;9.13;;;6.30;;
16354;SDS011;8287;51.644;8.494;2022-07-23T01:47:25;8.65;;;6.35;;
16354;SDS011;8287;51.644;8.494;2022-07-23T01:49:52;8.85;;;5.85;;
16354;SDS011;8287;51.644;8.494;2022-07-23T01:52:19;6.32;;;5.45;;
16354;SDS011;8287;51.644;8.494;2022-07-23T01:54:45;6.43;;;5.70;;
16354;SDS011;8287;51.644;8.494;2022-07-23T01:57:13;8.13;;;5.47;;
16354;SDS011;8287;51.644;8.494;2022-07-23T01:59:40;10.90;;;5.50;;
16354;SDS011;8287;51.644;8.494;2022-07-23T02:02:06;8.70;;;6.40;;
16354;SDS011;8287;51.644;8.494;2022-07-23T02:04:33;12.10;;;9.10;;
16354;SDS011;8287;51.644;8.494;2022-07-23T02:07:01;9.77;;;6.80;;
16354;SDS011;8287;51.644;8.494;2022-07-23T02:09:29;11.38;;;6.93;;
16354;SDS011;8287;51.644;8.494;2022-07-23T02:11:55;11.93;;;6.22;;
16354;SDS011;8287;51.644;8.494;2022-07-23T02:14:24;7.13;;;5.80;;
16354;SDS011;8287;51.644;8.494;2022-07-23T02:16:50;7.55;;;6.07;;
16354;SDS011;8287;51.644;8.494;2022-07-23T02:19:17;8.20;;;6.28;;
16354;SDS011;8287;51.644;8.494;2022-07-23T02:21:44;9.63;;;7.60;;
16354;SDS011;8287;51.644;8.494;2022-07-23T02:24:10;9.95;;;6.95;;
16354;SDS011;8287;51.644;8.494;2022-07-23T02:26:37;8.18;;;5.78;;
16354;SDS011;8287;51.644;8.494;2022-07-23T02:29:04;11.93;;;7.50;;
16354;SDS011;8287;51.644;8.494;2022-07-23T02:31:32;8.20;;;6.32;;
16354;SDS011;8287;51.644;8.494;2022-07-23T02:33:59;8.10;;;6.93;;
16354;SDS011;8287;51.644;8.494;2022-07-23T02:36:27;10.48;;;7.65;;
16354;SDS011;8287;51.644;8.494;2022-07-23T02:38:54;13.85;;;9.18;;
16354;SDS011;8287;51.644;8.494;2022-07-23T02:41:21;10.98;;;7.38;;
16354;SDS011;8287;51.644;8.494;2022-07-23T02:43:47;12.32;;;8.18;;
16354;SDS011;8287;51.644;8.494;2022-07-23T02:46:14;12.07;;;7.65;;
16354;SDS011;8287;51.644;8.494;2022-07-23T02:48:42;8.85;;;7.13;;
16354;SDS011;8287;51.644;8.494;2022-07-23T02:51:08;10.15;;;6.97;;
16354;SDS011;8287;51.644;8.494;2022-07-23T02:53:35;7.10;;;5.65;;
16354;SDS011;8287;51.644;8.494;2022-07-23T02:56:02;8.63;;;5.95;;
16354;SDS011;8287;51.644;8.494;2022-07-23T02:58:29;8.77;;;5.95;;
16354;SDS011;8287;51.644;8.494;2022-07-23T03:00:55;8.93;;;6.25;;
16354;SDS011;8287;51.644;8.494;2022-07-23T03:03:22;6.55;;;5.82;;
16354;SDS011;8287;51.644;8.494;2022-07-23T03:05:50;10.85;;;7.60;;
16354;SDS011;8287;51.644;8.494;2022-07-23T03:08:17;10.13;;;7.07;;
16354;SDS011;8287;51.644;8.494;2022-07-23T03:10:43;9.90;;;6.70;;
16354;SDS011;8287;51.644;8.494;2022-07-23T03:13:10;11.68;;;6.75;;
16354;SDS011;8287;51.644;8.494;2022-07-23T03:15:36;8.25;;;6.50;;
16354;SDS011;8287;51.644;8.494;2022-07-23T03:18:03;10.02;;;5.35;;
16354;SDS011;8287;51.644;8.494;2022-07-23T03:20:30;9.15;;;7.03;;
16354;SDS011;8287;51.644;8.494;2022-07-23T03:22:58;9.00;;;6.18;;
16354;SDS011;8287;51.644;8.494;2022-07-23T03:25:25;11.10;;;7.82;;
16354;SDS011;8287;51.644;8.494;2022-07-23T03:27:51;8.88;;;5.82;;
16354;SDS011;8287;51.644;8.494;2022-07-23T03:30:18;8.20;;;6.47;;
16354;SDS011;8287;51.644;8.494;2022-07-23T03:32:45;11.05;;;6.82;;
16354;SDS011;8287;51.644;8.494;2022-07-23T03:35:11;12.15;;;6.90;;
16354;SDS011;8287;51.644;8.494;2022-07-23T03:37:38;9.07;;;5.75;;
16354;SDS011;8287;51.644;8.494;2022-07-23T03:40:07;7.28;;;5.53;;
16354;SDS011;8287;51.644;8.494;2022-07-23T03:42:34;10.20;;;6.25;;
16354;SDS011;8287;51.644;8.494;2022-07-23T03:45:02;14.15;;;6.47;;
16354;SDS011;8287;51.644;8.494;2022-07-23T03:47:29;10.20;;;6.10;;
16354;SDS011;8287;51.644;8.494;2022-07-23T03:49:56;8.80;;;6.45;;
16354;SDS011;8287;51.644;8.494;2022-07-23T03:52:22;8.70;;;6.35;;
16354;SDS011;8287;51.644;8.494;2022-07-23T03:54:49;12.77;;;6.53;;
16354;SDS011;8287;51.644;8.494;2022-07-23T03:57:17;8.95;;;6.03;;
16354;SDS011;8287;51.644;8.494;2022-07-23T03:59:44;8.82;;;5.47;;
16354;SDS011;8287;51.644;8.494;2022-07-23T04:02:10;7.03;;;6.15;;
16354;SDS011;8287;51.644;8.494;2022-07-23T04:04:37;9.48;;;6.50;;
16354;SDS011;8287;51.644;8.494;2022-07-23T04:07:03;14.23;;;7.88;;
16354;SDS011;8287;51.644;8.494;2022-07-23T04:09:31;6.90;;;5.15;;
16354;SDS011;8287;51.644;8.494;2022-07-23T04:11:58;7.15;;;6.00;;
16354;SDS011;8287;51.644;8.494;2022-07-23T04:14:26;6.18;;;4.88;;
16354;SDS011;8287;51.644;8.494;2022-07-23T04:16:53;6.28;;;4.85;;
16354;SDS011;8287;51.644;8.494;2022-07-23T04:19:19;6.55;;;5.82;;
16354;SDS011;8287;51.644;8.494;2022-07-23T04:21:46;6.95;;;5.20;;
16354;SDS011;8287;51.644;8.494;2022-07-23T04:24:12;6.97;;;5.75;;
16354;SDS011;8287;51.644;8.494;2022-07-23T04:26:39;8.95;;;6.10;;
16354;SDS011;8287;51.644;8.494;2022-07-23T04:29:05;10.20;;;7.00;;
16354;SDS011;8287;51.644;8.494;2022-07-23T04:31:33;6.07;;;5.45;;
16354;SDS011;8287;51.644;8.494;2022-07-23T04:34:00;7.22;;;5.80;;
16354;SDS011;8287;51.644;8.494;2022-07-23T04:36:27;8.60;;;6.05;;
16354;SDS011;8287;51.644;8.494;2022-07-23T04:38:54;8.18;;;5.18;;
16354;SDS011;8287;51.644;8.494;2022-07-23T04:41:20;6.28;;;5.05;;
16354;SDS011;8287;51.644;8.494;2022-07-23T04:43:47;6.28;;;5.55;;
16354;SDS011;8287;51.644;8.494;2022-07-23T04:46:14;7.55;;;5.25;;
16354;SDS011;8287;51.644;8.494;2022-07-23T04:48:42;8.35;;;5.13;;
16354;SDS011;8287;51.644;8.494;2022-07-23T04:51:08;6.93;;;5.38;;
16354;SDS011;8287;51.644;8.494;2022-07-23T04:53:36;8.98;;;6.07;;
16354;SDS011;8287;51.644;8.494;2022-07-23T04:56:03;8.05;;;5.82;;
16354;SDS011;8287;51.644;8.494;2022-07-23T04:58:30;5.75;;;5.25;;
16354;SDS011;8287;51.644;8.494;2022-07-23T05:00:57;9.30;;;5.72;;
16354;SDS011;8287;51.644;8.494;2022-07-23T05:03:24;7.57;;;5.60;;
16354;SDS011;8287;51.644;8.494;2022-07-23T05:05:52;6.75;;;5.35;;
16354;SDS011;8287;51.644;8.494;2022-07-23T05:08:18;6.40;;;5.75;;
16354;SDS011;8287;51.644;8.494;2022-07-23T05:10:45;8.60;;;5.65;;
16354;SDS011;8287;51.644;8.494;2022-07-23T05:13:13;7.68;;;6.57;;
16354;SDS011;8287;51.644;8.494;2022-07-23T05:15:40;6.95;;;5.97;;
16354;SDS011;8287;51.644;8.494;2022-07-23T05:18:07;11.05;;;5.97;;
16354;SDS011;8287;51.644;8.494;2022-07-23T05:20:33;7.80;;;7.00;;
16354;SDS011;8287;51.644;8.494;2022-07-23T05:23:01;10.85;;;6.82;;
16354;SDS011;8287;51.644;8.494;2022-07-23T05:25:28;6.65;;;5.78;;
16354;SDS011;8287;51.644;8.494;2022-07-23T05:27:55;7.65;;;6.45;;
16354;SDS011;8287;51.644;8.494;2022-07-23T05:30:22;7.38;;;5.97;;
16354;SDS011;8287;51.644;8.494;2022-07-23T05:32:48;13.90;;;8.25;;
16354;SDS011;8287;51.644;8.494;2022-07-23T05:35:15;7.55;;;6.15;;
16354;SDS011;8287;51.644;8.494;2022-07-23T05:37:42;9.35;;;6.72;;
16354;SDS011;8287;51.644;8.494;2022-07-23T05:40:10;10.20;;;6.47;;
16354;SDS011;8287;51.644;8.494;2022-07-23T05:42:38;8.80;;;6.80;;
16354;SDS011;8287;51.644;8.494;2022-07-23T05:45:06;9.98;;;7.32;;
16354;SDS011;8287;51.644;8.494;2022-07-23T05:47:41;13.00;;;7.93;;
16354;SDS011;8287;51.644;8.494;2022-07-23T05:50:09;8.90;;;6.72;;
16354;SDS011;8287;51.644;8.494;2022-07-23T05:52:37;15.60;;;8.80;;
16354;SDS011;8287;51.644;8.494;2022-07-23T05:55:04;10.98;;;7.95;;
16354;SDS011;8287;51.644;8.494;2022-07-23T05:57:32;16.88;;;11.02;;
16354;SDS011;8287;51.644;8.494;2022-07-23T05:59:59;15.10;;;10.40;;
16354;SDS011;8287;51.644;8.494;2022-07-23T06:02:25;10.38;;;7.53;;
16354;SDS011;8287;51.644;8.494;2022-07-23T06:04:52;9.13;;;7.35;;
16354;SDS011;8287;51.644;8.494;2022-07-23T06:07:19;12.13;;;7.82;;
16354;SDS011;8287;51.644;8.494;2022-07-23T06:09:45;11.05;;;8.00;;
16354;SDS011;8287;51.644;8.494;2022-07-23T06:12:14;11.65;;;8.23;;
16354;SDS011;8287;51.644;8.494;2022-07-23T06:14:42;11.88;;;7.72;;
16354;SDS011;8287;51.644;8.494;2022-07-23T06:17:09;10.70;;;8.10;;
16354;SDS011;8287;51.644;8.494;2022-07-23T06:19:36;15.20;;;7.50;;
16354;SDS011;8287;51.644;8.494;2022-07-23T06:22:02;7.55;;;6.82;;
16354;SDS011;8287;51.644;8.494;2022-07-23T06:24:29;14.90;;;11.00;;
16354;SDS011;8287;51.644;8.494;2022-07-23T06:26:56;9.52;;;8.50;;
16354;SDS011;8287;51.644;8.494;2022-07-23T06:29:22;9.68;;;7.55;;
16354;SDS011;8287;51.644;8.494;2022-07-23T06:31:50;9.50;;;7.68;;
16354;SDS011;8287;51.644;8.494;2022-07-23T06:34:17;9.70;;;7.63;;
16354;SDS011;8287;51.644;8.494;2022-07-23T06:36:43;13.00;;;7.68;;
16354;SDS011;8287;51.644;8.494;2022-07-23T06:39:10;8.63;;;7.32;;
16354;SDS011;8287;51.644;8.494;2022-07-23T06:41:37;10.68;;;7.88;;
16354;SDS011;8287;51.644;8.494;2022-07-23T06:44:04;10.05;;;7.63;;
16354;SDS011;8287;51.644;8.494;2022-07-23T06:46:30;16.27;;;10.57;;
16354;SDS011;8287;51.644;8.494;2022-07-23T06:48:58;13.10;;;8.57;;
16354;SDS011;8287;51.644;8.494;2022-07-23T06:51:25;11.80;;;8.25;;
16354;SDS011;8287;51.644;8.494;2022-07-23T06:53:52;7.65;;;6.18;;
16354;SDS011;8287;51.644;8.494;2022-07-23T06:56:18;9.43;;;7.35;;
16354;SDS011;8287;51.644;8.494;2022-07-23T06:58:45;9.60;;;6.10;;
16354;SDS011;8287;51.644;8.494;2022-07-23T07:01:11;9.40;;;8.00;;
16354;SDS011;8287;51.644;8.494;2022-07-23T07:03:38;9.35;;;6.22;;
16354;SDS011;8287;51.644;8.494;2022-07-23T07:06:06;9.18;;;7.60;;
16354;SDS011;8287;51.644;8.494;2022-07-23T07:08:33;10.10;;;7.13;;
16354;SDS011;8287;51.644;8.494;2022-07-23T07:11:13;7.75;;;6.75;;
16354;SDS011;8287;51.644;8.494;2022-07-23T07:13:43;14.25;;;5.95;;
16354;SDS011;8287;51.644;8.494;2022-07-23T07:16:12;6.43;;;5.72;;
16354;SDS011;8287;51.644;8.494;2022-07-23T07:18:42;10.27;;;6.55;;
16354;SDS011;8287;51.644;8.494;2022-07-23T07:21:11;7.60;;;6.43;;
16354;SDS011;8287;51.644;8.494;2022-07-23T07:23:39;9.02;;;6.78;;
16354;SDS011;8287;51.644;8.494;2022-07-23T07:26:06;9.63;;;6.82;;
16354;SDS011;8287;51.644;8.494;2022-07-23T07:28:34;13.38;;;8.68;;
16354;SDS011;8287;51.644;8.494;2022-07-23T07:31:02;10.38;;;6.22;;
16354;SDS011;8287;51.644;8.494;2022-07-23T07:33:29;9.98;;;7.40;;
16354;SDS011;8287;51.644;8.494;2022-07-23T07:35:57;9.25;;;5.93;;
16354;SDS011;8287;51.644;8.494;2022-07-23T07:38:27;11.23;;;6.35;;
16354;SDS011;8287;51.644;8.494;2022-07-23T07:40:54;7.90;;;6.18;;
16354;SDS011;8287;51.644;8.494;2022-07-23T07:43:20;10.98;;;6.85;;
16354;SDS011;8287;51.644;8.494;2022-07-23T07:45:48;9.73;;;6.60;;
16354;SDS011;8287;51.644;8.494;2022-07-23T07:48:15;8.40;;;5.88;;
16354;SDS011;8287;51.644;8.494;2022-07-23T07:50:41;9.88;;;6.25;;
16354;SDS011;8287;51.644;8.494;2022-07-23T07:53:08;13.23;;;6.72;;
16354;SDS011;8287;51.644;8.494;2022-07-23T07:55:36;7.60;;;6.03;;
16354;SDS011;8287;51.644;8.494;2022-07-23T07:58:03;13.65;;;6.45;;
16354;SDS011;8287;51.644;8.494;2022-07-23T08:00:30;9.57;;;6.78;;
16354;SDS011;8287;51.644;8.494;2022-07-23T08:02:58;8.38;;;7.05;;
16354;SDS011;8287;51.644;8.494;2022-07-23T08:05:25;10.77;;;7.70;;
16354;SDS011;8287;51.644;8.494;2022-07-23T08:07:54;13.38;;;6.90;;
16354;SDS011;8287;51.644;8.494;2022-07-23T08:10:21;11.13;;;8.02;;
16354;SDS011;8287;51.644;8.494;2022-07-23T08:12:50;8.10;;;7.22;;
16354;SDS011;8287;51.644;8.494;2022-07-23T08:15:20;9.73;;;6.75;;
16354;SDS011;8287;51.644;8.494;2022-07-23T08:17:47;10.15;;;7.15;;
16354;SDS011;8287;51.644;8.494;2022-07-23T08:20:16;8.98;;;7.03;;
16354;SDS011;8287;51.644;8.494;2022-07-23T08:22:44;9.73;;;6.63;;
16354;SDS011;8287;51.644;8.494;2022-07-23T08:25:12;9.75;;;7.03;;
16354;SDS011;8287;51.644;8.494;2022-07-23T08:27:39;8.77;;;7.30;;
16354;SDS011;8287;51.644;8.494;2022-07-23T08:30:08;6.95;;;5.40;;
16354;SDS011;8287;51.644;8.494;2022-07-23T08:32:47;9.77;;;7.80;;
16354;SDS011;8287;51.644;8.494;2022-07-23T08:35:21;7.97;;;6.03;;
16354;SDS011;8287;51.644;8.494;2022-07-23T08:37:49;13.10;;;7.28;;
16354;SDS011;8287;51.644;8.494;2022-07-23T08:40:16;9.63;;;6.70;;
16354;SDS011;8287;51.644;8.494;2022-07-23T08:42:43;8.65;;;7.18;;
16354;SDS011;8287;51.644;8.494;2022-07-23T08:45:14;7.70;;;6.45;;
16354;SDS011;8287;51.644;8.494;2022-07-23T08:47:42;10.77;;;7.10;;
16354;SDS011;8287;51.644;8.494;2022-07-23T08:50:10;12.00;;;9.40;;
16354;SDS011;8287;51.644;8.494;2022-07-23T08:52:37;8.80;;;7.65;;
16354;SDS011;8287;51.644;8.494;2022-07-23T08:55:05;6.97;;;6.28;;
16354;SDS011;8287;51.644;8.494;2022-07-23T08:57:33;6.13;;;5.50;;
16354;SDS011;8287;51.644;8.494;2022-07-23T09:00:00;7.18;;;6.35;;
16354;SDS011;8287;51.644;8.494;2022-07-23T09:02:28;9.43;;;4.95;;
16354;SDS011;8287;51.644;8.494;2022-07-23T09:04:54;6.97;;;5.93;;
16354;SDS011;8287;51.644;8.494;2022-07-23T09:07:21;6.68;;;6.05;;
16354;SDS011;8287;51.644;8.494;2022-07-23T09:09:48;10.05;;;7.95;;
16354;SDS011;8287;51.644;8.494;2022-07-23T09:12:32;7.55;;;6.63;;
16354;SDS011;8287;51.644;8.494;2022-07-23T09:15:03;9.60;;;7.50;;
16354;SDS011;8287;51.644;8.494;2022-07-23T09:17:37;9.50;;;6.78;;
16354;SDS011;8287;51.644;8.494;2022-07-23T09:20:09;8.55;;;7.30;;
16354;SDS011;8287;51.644;8.494;2022-07-23T09:22:38;7.40;;;5.93;;
16354;SDS011;8287;51.644;8.494;2022-07-23T09:25:09;10.75;;;7.93;;
16354;SDS011;8287;51.644;8.494;2022-07-23T09:27:45;10.82;;;9.82;;
16354;SDS011;8287;51.644;8.494;2022-07-23T09:30:20;11.63;;;9.30;;
16354;SDS011;8287;51.644;8.494;2022-07-23T09:33:04;12.52;;;10.07;;
16354;SDS011;8287;51.644;8.494;2022-07-23T09:35:48;12.38;;;9.48;;
16354;SDS011;8287;51.644;8.494;2022-07-23T09:38:16;10.60;;;8.77;;
16354;SDS011;8287;51.644;8.494;2022-07-23T09:40:44;10.63;;;9.52;;
16354;SDS011;8287;51.644;8.494;2022-07-23T09:43:12;11.95;;;9.80;;
16354;SDS011;8287;51.644;8.494;2022-07-23T09:45:39;11.07;;;8.75;;
16354;SDS011;8287;51.644;8.494;2022-07-23T09:48:13;12.52;;;9.23;;
16354;SDS011;8287;51.644;8.494;2022-07-23T09:50:42;10.15;;;8.98;;
16354;SDS011;8287;51.644;8.494;2022-07-23T09:53:09;12.75;;;10.13;;
16354;SDS011;8287;51.644;8.494;2022-07-23T09:55:49;9.93;;;8.63;;
16354;SDS011;8287;51.644;8.494;2022-07-23T09:58:18;9.32;;;7.78;;
16354;SDS011;8287;51.644;8.494;2022-07-23T10:00:48;9.52;;;8.20;;
16354;SDS011;8287;51.644;8.494;2022-07-23T10:03:16;8.90;;;8.00;;
16354;SDS011;8287;51.644;8.494;2022-07-23T10:05:45;10.88;;;8.85;;
16354;SDS011;8287;51.644;8.494;2022-07-23T10:08:13;7.90;;;7.18;;
16354;SDS011;8287;51.644;8.494;2022-07-23T10:10:43;11.23;;;7.90;;
16354;SDS011;8287;51.644;8.494;2022-07-23T10:13:12;8.77;;;7.45;;
16354;SDS011;8287;51.644;8.494;2022-07-23T10:16:00;8.98;;;6.75;;
16354;SDS011;8287;51.644;8.494;2022-07-23T10:18:28;7.07;;;5.93;;
16354;SDS011;8287;51.644;8.494;2022-07-23T10:20:56;7.88;;;6.10;;
16354;SDS011;8287;51.644;8.494;2022-07-23T10:23:27;8.45;;;5.53;;
16354;SDS011;8287;51.644;8.494;2022-07-23T10:26:05;5.38;;;4.88;;
16354;SDS011;8287;51.644;8.494;2022-07-23T10:28:43;8.52;;;6.30;;
16354;SDS011;8287;51.644;8.494;2022-07-23T10:31:26;5.93;;;5.30;;
16354;SDS011;8287;51.644;8.494;2022-07-23T10:34:06;6.28;;;5.20;;
16354;SDS011;8287;51.644;8.494;2022-07-23T10:36:47;10.43;;;5.70;;
16354;SDS011;8287;51.644;8.494;2022-07-23T10:39:17;6.97;;;5.80;;
16354;SDS011;8287;51.644;8.494;2022-07-23T10:41:48;6.40;;;5.60;;
16354;SDS011;8287;51.644;8.494;2022-07-23T10:44:15;5.72;;;4.70;;
16354;SDS011;8287;51.644;8.494;2022-07-23T10:46:54;5.57;;;4.38;;
16354;SDS011;8287;51.644;8.494;2022-07-23T10:49:37;7.30;;;6.57;;
16354;SDS011;8287;51.644;8.494;2022-07-23T10:52:17;4.75;;;4.05;;
16354;SDS011;8287;51.644;8.494;2022-07-23T10:54:46;4.43;;;3.75;;
16354;SDS011;8287;51.644;8.494;2022-07-23T10:57:14;6.00;;;4.35;;
16354;SDS011;8287;51.644;8.494;2022-07-23T11:02:44;7.75;;;3.70;;
16354;SDS011;8287;51.644;8.494;2022-07-23T11:05:15;5.57;;;4.38;;
16354;SDS011;8287;51.644;8.494;2022-07-23T11:10:40;7.88;;;3.25;;
16354;SDS011;8287;51.644;8.494;2022-07-23T11:13:25;3.33;;;3.03;;
16354;SDS011;8287;51.644;8.494;2022-07-23T11:21:42;3.70;;;3.40;;
16354;SDS011;8287;51.644;8.494;2022-07-23T11:24:11;3.72;;;1.98;;
16354;SDS011;8287;51.644;8.494;2022-07-23T11:26:47;3.60;;;3.20;;
16354;SDS011;8287;51.644;8.494;2022-07-23T11:32:33;4.60;;;2.95;;
16354;SDS011;8287;51.644;8.494;2022-07-23T11:35:05;2.80;;;2.08;;
16354;SDS011;8287;51.644;8.494;2022-07-23T11:37:47;6.57;;;2.90;;
16354;SDS011;8287;51.644;8.494;2022-07-23T11:40:15;3.85;;;2.42;;
16354;SDS011;8287;51.644;8.494;2022-07-23T11:42:56;4.43;;;3.13;;
16354;SDS011;8287;51.644;8.494;2022-07-23T11:45:25;2.65;;;1.98;;
16354;SDS011;8287;51.644;8.494;2022-07-23T11:47:57;2.60;;;2.35;;
16354;SDS011;8287;51.644;8.494;2022-07-23T11:50:24;3.58;;;2.35;;
16354;SDS011;8287;51.644;8.494;2022-07-23T11:52:52;2.95;;;2.10;;
16354;SDS011;8287;51.644;8.494;2022-07-23T11:55:19;3.53;;;2.90;;
16354;SDS011;8287;51.644;8.494;2022-07-23T11:57:46;5.15;;;2.00;;
16354;SDS011;8287;51.644;8.494;2022-07-23T12:00:14;4.45;;;1.67;;
16354;SDS011;8287;51.644;8.494;2022-07-23T12:02:43;6.30;;;2.35;;
16354;SDS011;8287;51.644;8.494;2022-07-23T12:05:12;2.60;;;2.40;;
16354;SDS011;8287;51.644;8.494;2022-07-23T12:07:41;2.53;;;2.20;;
16354;SDS011;8287;51.644;8.494;2022-07-23T12:10:12;3.38;;;2.33;;
16354;SDS011;8287;51.644;8.494;2022-07-23T12:12:41;4.68;;;2.00;;
16354;SDS011;8287;51.644;8.494;2022-07-23T12:15:09;1.70;;;1.60;;
16354;SDS011;8287;51.644;8.494;2022-07-23T12:17:37;5.28;;;2.10;;
16354;SDS011;8287;51.644;8.494;2022-07-23T12:20:05;3.58;;;1.88;;
16354;SDS011;8287;51.644;8.494;2022-07-23T12:22:34;7.63;;;2.15;;
16354;SDS011;8287;51.644;8.494;2022-07-23T12:25:03;3.22;;;2.08;;
16354;SDS011;8287;51.644;8.494;2022-07-23T12:27:34;4.13;;;1.92;;
16354;SDS011;8287;51.644;8.494;2022-07-23T12:32:47;3.70;;;2.90;;
16354;SDS011;8287;51.644;8.494;2022-07-23T12:35:15;3.00;;;2.08;;
16354;SDS011;8287;51.644;8.494;2022-07-23T12:37:43;2.00;;;1.60;;
16354;SDS011;8287;51.644;8.494;2022-07-23T12:40:24;3.80;;;1.70;;
16354;SDS011;8287;51.644;8.494;2022-07-23T12:42:54;2.33;;;1.42;;
16354;SDS011;8287;51.644;8.494;2022-07-23T12:45:22;4.93;;;1.83;;
16354;SDS011;8287;51.644;8.494;2022-07-23T12:50:38;1.50;;;1.40;;
16354;SDS011;8287;51.644;8.494;2022-07-23T12:53:16;2.10;;;1.80;;
16354;SDS011;8287;51.644;8.494;2022-07-23T12:55:45;1.80;;;1.25;;
16354;SDS011;8287;51.644;8.494;2022-07-23T12:58:14;3.15;;;2.10;;
16354;SDS011;8287;51.644;8.494;2022-07-23T13:00:52;3.97;;;1.45;;
16354;SDS011;8287;51.644;8.494;2022-07-23T13:03:28;2.25;;;1.45;;
16354;SDS011;8287;51.644;8.494;2022-07-23T13:05:57;5.68;;;1.65;;
16354;SDS011;8287;51.644;8.494;2022-07-23T13:08:24;2.20;;;1.48;;
16354;SDS011;8287;51.644;8.494;2022-07-23T13:10:53;3.63;;;1.65;;
16354;SDS011;8287;51.644;8.494;2022-07-23T13:13:21;1.40;;;1.30;;
16354;SDS011;8287;51.644;8.494;2022-07-23T13:15:49;1.70;;;1.60;;
16354;SDS011;8287;51.644;8.494;2022-07-23T13:18:17;7.72;;;1.52;;
16354;SDS011;8287;51.644;8.494;2022-07-23T13:20:44;1.80;;;1.20;;
16354;SDS011;8287;51.644;8.494;2022-07-23T13:23:13;1.88;;;1.20;;
16354;SDS011;8287;51.644;8.494;2022-07-23T13:25:39;3.58;;;1.35;;
16354;SDS011;8287;51.644;8.494;2022-07-23T13:28:06;1.60;;;1.38;;
16354;SDS011;8287;51.644;8.494;2022-07-23T13:30:34;1.20;;;1.10;;
16354;SDS011;8287;51.644;8.494;2022-07-23T13:33:02;2.78;;;1.58;;
16354;SDS011;8287;51.644;8.494;2022-07-23T13:35:30;2.47;;;1.73;;
16354;SDS011;8287;51.644;8.494;2022-07-23T13:37:56;1.60;;;1.45;;
16354;SDS011;8287;51.644;8.494;2022-07-23T13:40:23;2.17;;;1.50;;
16354;SDS011;8287;51.644;8.494;2022-07-23T13:42:50;1.58;;;1.17;;
16354;SDS011;8287;51.644;8.494;2022-07-23T13:45:16;1.75;;;1.17;;
16354;SDS011;8287;51.644;8.494;2022-07-23T13:47:44;2.60;;;1.48;;
16354;SDS011;8287;51.644;8.494;2022-07-23T13:50:11;1.60;;;1.38;;
16354;SDS011;8287;51.644;8.494;2022-07-23T13:52:40;2.50;;;1.40;;
16354;SDS011;8287;51.644;8.494;2022-07-23T13:55:07;1.33;;;1.20;;
16354;SDS011;8287;51.644;8.494;2022-07-23T13:57:34;1.17;;;1.08;;
16354;SDS011;8287;51.644;8.494;2022-07-23T14:00:00;1.75;;;1.30;;
16354;SDS011;8287;51.644;8.494;2022-07-23T14:02:27;5.75;;;1.38;;
16354;SDS011;8287;51.644;8.494;2022-07-23T14:04:55;1.40;;;1.30;;
16354;SDS011;8287;51.644;8.494;2022-07-23T14:07:23;3.25;;;1.33;;
16354;SDS011;8287;51.644;8.494;2022-07-23T14:09:49;1.27;;;1.17;;
16354;SDS011;8287;51.644;8.494;2022-07-23T14:12:16;1.73;;;1.15;;
16354;SDS011;8287;51.644;8.494;2022-07-23T14:14:42;2.15;;;1.10;;
16354;SDS011;8287;51.644;8.494;2022-07-23T14:17:09;1.15;;;0.90;;
16354;SDS011;8287;51.644;8.494;2022-07-23T14:19:36;3.15;;;1.17;;
16354;SDS011;8287;51.644;8.494;2022-07-23T14:22:04;1.60;;;1.50;;
16354;SDS011;8287;51.644;8.494;2022-07-23T14:24:30;2.80;;;1.20;;
16354;SDS011;8287;51.644;8.494;2022-07-23T14:26:59;1.60;;;1.10;;
16354;SDS011;8287;51.644;8.494;2022-07-23T14:29:26;1.48;;;1.10;;
16354;SDS011;8287;51.644;8.494;2022-07-23T14:31:53;1.23;;;1.13;;
16354;SDS011;8287;51.644;8.494;2022-07-23T14:34:19;3.10;;;1.40;;
16354;SDS011;8287;51.644;8.494;2022-07-23T14:36:46;0.77;;;0.77;;
16354;SDS011;8287;51.644;8.494;2022-07-23T14:39:14;0.90;;;0.90;;
16354;SDS011;8287;51.644;8.494;2022-07-23T14:41:41;1.70;;;1.40;;
16354;SDS011;8287;51.644;8.494;2022-07-23T14:44:07;1.55;;;1.27;;
16354;SDS011;8287;51.644;8.494;2022-07-23T14:46:34;3.65;;;1.30;;
16354;SDS011;8287;51.644;8.494;2022-07-23T14:49:01;3.58;;;1.17;;
16354;SDS011;8287;51.644;8.494;2022-07-23T14:51:28;1.30;;;1.05;;
16354;SDS011;8287;51.644;8.494;2022-07-23T14:53:55;3.60;;;1.20;;
16354;SDS011;8287;51.644;8.494;2022-07-23T14:56:23;2.83;;;1.38;;
16354;SDS011;8287;51.644;8.494;2022-07-23T14:58:50;2.78;;;1.48;;
16354;SDS011;8287;51.644;8.494;2022-07-23T15:01:16;2.78;;;1.50;;
16354;SDS011;8287;51.644;8.494;2022-07-23T15:03:43;2.60;;;1.33;;
16354;SDS011;8287;51.644;8.494;2022-07-23T15:06:10;1.48;;;1.38;;
16354;SDS011;8287;51.644;8.494;2022-07-23T15:08:36;1.40;;;1.30;;
16354;SDS011;8287;51.644;8.494;2022-07-23T15:11:03;1.15;;;1.05;;
16354;SDS011;8287;51.644;8.494;2022-07-23T15:13:31;1.38;;;1.17;;
16354;SDS011;8287;51.644;8.494;2022-07-23T15:15:57;1.67;;;1.17;;
16354;SDS011;8287;51.644;8.494;2022-07-23T15:18:24;1.02;;;0.98;;
16354;SDS011;8287;51.644;8.494;2022-07-23T15:20:51;1.90;;;0.90;;
16354;SDS011;8287;51.644;8.494;2022-07-23T15:23:17;1.20;;;1.10;;
16354;SDS011;8287;51.644;8.494;2022-07-23T15:25:44;1.88;;;1.15;;